Time;durP1;ratioP1;P1;durP2;ratioP2;P2;SDS_P1;SDS_P2;PMS_P1;PMS_P2;Temp;Humidity;BMP_temperature;BMP_pressure;BME280_temperature;BME280_humidity;BME280_pressure;Samples;Min_cycle;Max_cycle;Signal;HPM_P1;HPM_P2
2022/06/20 00:00:43;;;;;;;7.57;2.30;;;;;;;17.45;90.30;100837.81;5018084;28;20052;-74
2022/06/20 00:03:38;;;;;;;10.23;2.60;;;;;;;17.41;90.16;100828.69;5023981;28;20614;-72
2022/06/20 00:06:05;;;;;;;8.48;2.60;;;;;;;17.43;88.92;100843.88;5007217;28;20147;-74
2022/06/20 00:08:32;;;;;;;7.75;2.45;;;;;;;17.39;89.33;100839.56;5022545;28;20052;-74
2022/06/20 00:10:58;;;;;;;9.70;2.92;;;;;;;17.37;88.91;100833.59;5021675;28;20061;-73
2022/06/20 00:13:34;;;;;;;13.45;2.50;;;;;;;17.38;88.81;100807.22;5018367;28;20926;-74
2022/06/20 00:16:02;;;;;;;7.60;2.45;;;;;;;17.34;88.92;100818.50;5017373;28;20814;-73
2022/06/20 00:18:30;;;;;;;8.52;2.47;;;;;;;17.32;89.30;100831.34;5022283;28;20053;-74
2022/06/20 00:20:57;;;;;;;11.20;2.90;;;;;;;17.31;89.31;100815.78;5021172;28;20304;-73
2022/06/20 00:23:24;;;;;;;9.05;3.10;;;;;;;17.27;89.12;100809.50;5031452;28;20627;-74
2022/06/20 00:25:50;;;;;;;9.25;2.50;;;;;;;17.27;89.11;100806.69;5022463;28;20048;-73
2022/06/20 00:28:17;;;;;;;6.80;2.20;;;;;;;17.27;89.47;100826.28;5028489;28;20150;-73
2022/06/20 00:30:44;;;;;;;8.30;2.75;;;;;;;17.21;89.42;100823.25;5023973;28;21713;-73
2022/06/20 00:33:11;;;;;;;7.82;2.83;;;;;;;17.23;90.38;100831.97;5026902;28;20049;-72
2022/06/20 00:35:39;;;;;;;7.00;2.60;;;;;;;17.30;90.81;100845.78;5049645;28;20820;-73
2022/06/20 00:38:07;;;;;;;6.13;2.35;;;;;;;17.37;90.17;100850.38;5027450;28;20726;-74
2022/06/20 00:40:46;;;;;;;7.90;2.63;;;;;;;17.40;89.67;100855.91;5030492;28;20045;-73
2022/06/20 00:43:21;;;;;;;6.28;2.63;;;;;;;17.40;89.71;100855.91;5027196;28;20053;-71
2022/06/20 00:45:51;;;;;;;4.30;2.30;;;;;;;17.42;89.89;100849.91;5026844;28;20040;-73
2022/06/20 00:48:23;;;;;;;6.90;2.50;;;;;;;17.42;89.17;100856.25;5020233;28;20061;-73
2022/06/20 00:50:55;;;;;;;6.43;3.03;;;;;;;17.44;88.66;100858.63;5026713;28;20059;-74
2022/06/20 00:53:31;;;;;;;9.73;2.58;;;;;;;17.39;89.59;100845.91;5026526;28;20890;-73
2022/06/20 00:56:09;;;;;;;6.82;2.95;;;;;;;17.38;89.92;100835.19;5021233;28;20794;-73
2022/06/20 00:58:52;;;;;;;6.18;2.38;;;;;;;17.37;91.49;100828.81;5027384;28;20061;-73
2022/06/20 01:01:25;;;;;;;7.22;2.50;;;;;;;17.39;90.84;100823.53;5015270;28;20056;-74
2022/06/20 01:03:55;;;;;;;11.43;2.83;;;;;;;17.36;92.02;100815.25;5020679;28;20651;-72
2022/06/20 01:06:28;;;;;;;8.10;2.63;;;;;;;17.37;91.57;100811.22;5022857;28;20512;-73
2022/06/20 01:09:05;;;;;;;7.65;2.85;;;;;;;17.36;92.61;100827.25;5015940;28;20048;-73
2022/06/20 01:11:44;;;;;;;10.40;2.53;;;;;;;17.31;92.74;100836.16;5023488;28;20053;-73
2022/06/20 01:14:41;;;;;;;6.90;2.78;;;;;;;17.30;94.00;100847.78;5015716;28;20096;-73
2022/06/20 01:17:30;;;;;;;6.28;2.80;;;;;;;17.31;93.65;100844.53;5024046;28;20128;-73
2022/06/20 01:20:17;;;;;;;8.60;2.92;;;;;;;17.29;93.44;100851.81;5027359;28;20048;-72
2022/06/20 01:22:57;;;;;;;4.93;2.75;;;;;;;17.28;94.56;100878.22;5033414;28;20782;-74
2022/06/20 01:25:47;;;;;;;9.02;3.30;;;;;;;17.25;95.40;100877.06;5018280;28;20183;-73
2022/06/20 01:28:17;;;;;;;9.90;2.92;;;;;;;17.23;94.81;100899.09;5020640;28;20143;-72
2022/06/20 01:30:46;;;;;;;14.95;3.42;;;;;;;17.21;97.87;100895.16;5044588;28;20053;-73
2022/06/20 01:33:16;;;;;;;11.88;2.50;;;;;;;16.92;100.00;100975.34;5020813;28;20044;-72
2022/06/20 01:38:28;;;;;;;10.20;3.90;;;;;;;16.64;100.00;101060.56;5019762;28;20130;-74
2022/06/20 01:43:41;;;;;;;;;;;;;;;16.75;100.00;101046.38;5023944;28;20800;-73
2022/06/20 01:46:10;;;;;;;9.52;3.58;;;;;;;16.72;100.00;101048.03;5022751;28;19932;-72
2022/06/20 01:48:43;;;;;;;8.63;3.17;;;;;;;16.70;100.00;101058.03;5026062;28;20048;-74
2022/06/20 01:51:22;;;;;;;15.48;5.18;;;;;;;16.59;100.00;101065.88;5022738;28;20566;-72
2022/06/20 01:53:52;;;;;;;10.13;3.50;;;;;;;16.53;100.00;101062.00;5017230;28;20594;-73
2022/06/20 01:56:21;;;;;;;14.43;4.22;;;;;;;16.48;100.00;101062.50;5017556;28;20557;-73
2022/06/20 01:59:03;;;;;;;8.68;3.42;;;;;;;16.25;100.00;101059.72;5021426;28;20046;-73
2022/06/20 02:01:34;;;;;;;10.50;4.57;;;;;;;16.14;100.00;101073.09;5046044;28;20083;-72
2022/06/20 02:04:04;;;;;;;10.27;3.67;;;;;;;16.13;100.00;101077.13;5039892;28;20063;-71
2022/06/20 02:06:32;;;;;;;12.20;3.42;;;;;;;16.06;100.00;101071.66;5044235;28;20045;-71
2022/06/20 02:08:59;;;;;;;9.98;3.92;;;;;;;16.04;100.00;101065.69;5039607;28;20061;-72
2022/06/20 02:11:32;;;;;;;11.23;4.20;;;;;;;16.11;100.00;101051.63;5043275;28;20132;-71
2022/06/20 02:14:05;;;;;;;11.18;3.88;;;;;;;16.15;100.00;101049.53;5043631;28;20051;-71
2022/06/20 02:16:35;;;;;;;11.23;3.80;;;;;;;16.21;100.00;101037.47;5037508;28;20606;-71
2022/06/20 02:19:04;;;;;;;11.85;4.35;;;;;;;16.25;100.00;101032.59;5041463;28;20049;-71
2022/06/20 02:21:34;;;;;;;9.38;3.80;;;;;;;16.32;100.00;101017.69;5044496;28;20114;-71
2022/06/20 02:24:08;;;;;;;12.93;4.10;;;;;;;16.39;100.00;100996.00;5043724;28;20425;-72
2022/06/20 02:26:37;;;;;;;9.20;3.83;;;;;;;16.42;100.00;100978.44;5040210;28;20085;-71
2022/06/20 02:29:22;;;;;;;10.32;4.07;;;;;;;16.49;100.00;100969.91;5045477;28;20079;-73
2022/06/20 02:32:18;;;;;;;8.90;3.85;;;;;;;16.54;100.00;100966.59;5041158;28;21030;-72
2022/06/20 02:34:46;;;;;;;14.43;3.65;;;;;;;16.49;100.00;100947.56;5032759;28;20128;-71
2022/06/20 02:37:23;;;;;;;11.73;4.47;;;;;;;16.46;100.00;100928.88;5045498;28;20124;-70
2022/06/20 02:39:54;;;;;;;11.85;3.60;;;;;;;16.47;100.00;100924.06;5044630;28;20045;-70
2022/06/20 02:42:34;;;;;;;13.88;4.25;;;;;;;16.44;100.00;100906.16;5041372;28;20125;-71
2022/06/20 02:45:05;;;;;;;9.75;3.50;;;;;;;16.44;100.00;100883.81;5040520;28;20640;-72
2022/06/20 02:47:34;;;;;;;10.80;3.63;;;;;;;16.45;100.00;100881.81;5042043;28;20055;-71
2022/06/20 02:50:02;;;;;;;11.55;3.55;;;;;;;16.47;100.00;100865.44;5042541;28;20059;-71
2022/06/20 02:52:45;;;;;;;12.88;4.13;;;;;;;16.42;100.00;100861.13;5044224;28;20055;-70
2022/06/20 02:55:16;;;;;;;9.90;3.22;;;;;;;16.38;100.00;100854.81;5040355;28;20045;-72
2022/06/20 02:57:47;;;;;;;9.15;3.45;;;;;;;16.39;100.00;100848.00;5042593;28;20061;-71
2022/06/20 03:00:18;;;;;;;10.57;3.38;;;;;;;16.36;100.00;100831.31;5041544;28;20040;-73
2022/06/20 03:03:01;;;;;;;9.77;3.40;;;;;;;16.28;100.00;100813.16;5035957;28;20069;-71
2022/06/20 03:05:28;;;;;;;13.90;3.70;;;;;;;16.26;100.00;100796.09;5038557;28;20045;-71
2022/06/20 03:07:55;;;;;;;10.60;3.50;;;;;;;16.23;100.00;100794.16;5035239;28;20071;-71
2022/06/20 03:10:33;;;;;;;9.85;3.38;;;;;;;16.22;100.00;100792.56;5041325;28;20080;-70
2022/06/20 03:13:01;;;;;;;14.82;3.70;;;;;;;16.23;100.00;100792.13;5044746;28;20049;-71
2022/06/20 03:15:30;;;;;;;10.50;3.20;;;;;;;16.21;100.00;100785.41;5041348;28;20073;-71
2022/06/20 03:17:57;;;;;;;9.40;3.30;;;;;;;16.21;100.00;100777.84;5041302;28;20049;-71
2022/06/20 03:20:26;;;;;;;7.35;2.70;;;;;;;16.14;100.00;100768.81;5045733;28;20064;-72
2022/06/20 03:23:07;;;;;;;14.35;3.42;;;;;;;16.15;100.00;100773.19;5043803;28;20144;-71
2022/06/20 03:25:37;;;;;;;11.38;3.35;;;;;;;16.14;100.00;100766.03;5041844;28;20689;-71
2022/06/20 03:28:04;;;;;;;12.38;3.65;;;;;;;16.12;100.00;100772.06;5045089;28;20139;-71
2022/06/20 03:30:52;;;;;;;11.30;3.10;;;;;;;16.07;100.00;100780.16;5044137;28;20057;-72
2022/06/20 03:33:21;;;;;;;10.25;2.65;;;;;;;16.04;100.00;100759.47;5042808;28;20080;-70
2022/06/20 03:36:20;;;;;;;14.63;3.05;;;;;;;16.05;100.00;100763.03;5032616;28;20043;-71
2022/06/20 03:38:48;;;;;;;13.60;2.95;;;;;;;16.07;100.00;100752.25;5043212;28;20053;-72
2022/06/20 03:41:24;;;;;;;14.18;3.45;;;;;;;16.07;100.00;100736.28;5043087;28;20674;-72
2022/06/20 03:43:57;;;;;;;14.48;3.00;;;;;;;16.03;100.00;100732.78;5039591;28;20155;-71
2022/06/20 03:46:31;;;;;;;14.70;3.40;;;;;;;16.02;100.00;100750.75;5042599;28;20079;-71
2022/06/20 03:49:03;;;;;;;9.57;3.00;;;;;;;16.03;100.00;100752.31;5044451;28;20072;-71
2022/06/20 03:51:43;;;;;;;11.82;3.08;;;;;;;16.04;100.00;100751.09;5043629;28;20053;-71
2022/06/20 03:54:24;;;;;;;12.60;2.97;;;;;;;16.01;100.00;100745.59;5040643;28;20084;-73
2022/06/20 03:57:00;;;;;;;13.68;2.95;;;;;;;15.97;100.00;100747.69;5029527;28;20807;-71
2022/06/20 03:59:53;;;;;;;12.15;2.95;;;;;;;15.90;100.00;100745.84;5052151;28;20069;-71
2022/06/20 04:02:55;;;;;;;10.07;3.17;;;;;;;15.95;100.00;100750.91;5038906;28;20775;-71
2022/06/20 04:05:28;;;;;;;13.00;2.95;;;;;;;16.00;100.00;100744.03;5042237;28;20056;-71
2022/06/20 04:08:03;;;;;;;14.52;2.72;;;;;;;15.98;100.00;100749.25;5047639;28;20056;-71
2022/06/20 04:11:01;;;;;;;12.73;3.17;;;;;;;15.93;100.00;100744.19;5040694;28;20136;-71
2022/06/20 04:13:30;;;;;;;12.82;3.65;;;;;;;15.96;100.00;100754.50;5049717;28;20060;-71
2022/06/20 04:16:06;;;;;;;13.90;3.80;;;;;;;15.99;100.00;100762.78;5040765;28;20049;-71
2022/06/20 04:18:38;;;;;;;7.75;2.50;;;;;;;16.03;100.00;100774.63;5040356;28;20076;-71
2022/06/20 04:21:23;;;;;;;13.65;3.20;;;;;;;16.01;100.00;100781.88;5040517;28;20049;-71
2022/06/20 04:23:56;;;;;;;10.52;2.90;;;;;;;16.08;100.00;100792.88;5043249;28;20137;-71
2022/06/20 04:26:23;;;;;;;8.75;2.60;;;;;;;16.08;100.00;100801.25;5065689;28;20516;-72
2022/06/20 04:28:57;;;;;;;13.70;3.10;;;;;;;16.08;100.00;100815.22;5044811;28;20055;-72
2022/06/20 04:32:05;;;;;;;12.18;2.67;;;;;;;16.07;100.00;100830.41;5046712;28;20171;-71
2022/06/20 04:34:45;;;;;;;12.75;3.25;;;;;;;16.07;100.00;100841.56;5015943;28;20080;-71
2022/06/20 04:37:33;;;;;;;8.93;2.20;;;;;;;16.04;100.00;100837.63;5014728;28;20057;-71
2022/06/20 04:40:11;;;;;;;8.23;2.53;;;;;;;16.11;100.00;100843.06;5021410;28;20950;-72
2022/06/20 04:43:33;;;;;;;17.48;3.10;;;;;;;16.13;100.00;100848.97;5003029;28;20133;-71
2022/06/20 04:46:10;;;;;;;15.70;2.42;;;;;;;16.16;100.00;100866.91;5005696;28;20045;-71
2022/06/20 04:48:37;;;;;;;9.80;2.45;;;;;;;16.12;100.00;100875.34;5019789;28;20052;-71
2022/06/20 04:51:09;;;;;;;14.40;3.10;;;;;;;16.17;100.00;100890.78;5002472;28;20133;-74
2022/06/20 04:53:44;;;;;;;16.70;3.28;;;;;;;16.18;100.00;100912.69;5022750;28;20672;-74
2022/06/20 04:56:14;;;;;;;9.82;2.55;;;;;;;16.11;100.00;100937.97;5018281;28;20081;-72
2022/06/20 04:58:51;;;;;;;17.25;2.85;;;;;;;15.99;100.00;100974.88;5021236;28;20164;-72
2022/06/20 05:01:19;;;;;;;14.50;2.60;;;;;;;15.91;100.00;100986.59;5021194;28;20111;-72
2022/06/20 05:03:49;;;;;;;17.92;4.10;;;;;;;15.87;100.00;100986.69;5027360;28;20053;-72
2022/06/20 05:06:23;;;;;;;15.02;2.95;;;;;;;15.89;100.00;100983.47;5039411;28;20133;-71
2022/06/20 05:08:53;;;;;;;14.80;2.85;;;;;;;15.89;100.00;100977.88;5044503;28;20472;-72
2022/06/20 05:11:58;;;;;;;15.10;3.35;;;;;;;15.89;100.00;100989.03;5049722;28;20147;-71
2022/06/20 05:14:31;;;;;;;10.70;2.88;;;;;;;15.86;100.00;100992.69;5035134;28;20069;-71
2022/06/20 05:16:59;;;;;;;14.77;3.08;;;;;;;15.77;100.00;100995.22;5043687;28;20107;-72
2022/06/20 05:19:31;;;;;;;11.93;2.78;;;;;;;15.67;100.00;101001.78;5040458;28;20075;-72
2022/06/20 05:22:00;;;;;;;11.15;2.70;;;;;;;15.61;100.00;100997.91;5054329;28;20076;-73
2022/06/20 05:24:33;;;;;;;10.02;2.90;;;;;;;15.59;100.00;101000.34;5033891;28;20809;-72
2022/06/20 05:27:11;;;;;;;17.42;3.53;;;;;;;15.55;100.00;101003.19;5041228;28;20044;-73
2022/06/20 05:29:40;;;;;;;9.40;3.20;;;;;;;15.55;100.00;101000.38;5043714;28;20139;-72
2022/06/20 05:32:20;;;;;;;9.68;3.10;;;;;;;15.58;100.00;101016.28;5044534;28;20113;-71
2022/06/20 05:34:55;;;;;;;18.38;3.47;;;;;;;15.56;100.00;101017.91;5042087;28;20123;-71
2022/06/20 05:37:37;;;;;;;15.45;3.25;;;;;;;15.52;100.00;101017.19;5050122;28;20117;-71
2022/06/20 05:40:21;;;;;;;14.90;3.63;;;;;;;15.48;100.00;101010.88;5047949;28;20033;-72
2022/06/20 05:42:48;;;;;;;15.23;3.28;;;;;;;15.56;100.00;101006.75;5043812;28;20075;-71
2022/06/20 05:45:17;;;;;;;13.77;3.60;;;;;;;15.63;100.00;101003.84;5040601;28;20099;-73
2022/06/20 05:47:50;;;;;;;12.10;3.25;;;;;;;15.63;100.00;101003.84;5047524;28;20133;-73
2022/06/20 05:50:50;;;;;;;17.83;3.33;;;;;;;15.64;100.00;101002.63;5045789;28;20049;-72
2022/06/20 05:53:24;;;;;;;18.85;5.72;;;;;;;15.69;100.00;101005.72;5045798;28;20110;-72
2022/06/20 05:55:55;;;;;;;20.02;3.88;;;;;;;15.76;100.00;101011.16;5032739;28;20049;-76
2022/06/20 05:58:43;;;;;;;20.35;4.20;;;;;;;15.87;100.00;101005.41;5044137;28;20052;-73
2022/06/20 06:01:16;;;;;;;15.90;4.22;;;;;;;16.00;100.00;100995.97;5038670;28;20468;-73
2022/06/20 06:04:17;;;;;;;18.08;5.20;;;;;;;16.13;100.00;100996.94;5050594;28;20052;-72
2022/06/20 06:06:56;;;;;;;17.98;3.80;;;;;;;16.30;100.00;101008.97;5044851;28;20137;-73
2022/06/20 06:09:53;;;;;;;13.53;3.30;;;;;;;16.42;100.00;101013.91;5035548;28;20053;-75
2022/06/20 06:12:31;;;;;;;17.35;3.72;;;;;;;16.50;100.00;101004.97;5045331;28;20053;-73
2022/06/20 06:15:36;;;;;;;17.05;3.58;;;;;;;16.59;100.00;100998.81;5038646;28;20052;-73
2022/06/20 06:18:09;;;;;;;11.60;3.40;;;;;;;16.66;100.00;100987.50;5018795;28;20628;-74
2022/06/20 06:20:37;;;;;;;17.50;3.78;;;;;;;16.69;100.00;100995.00;5043004;28;20128;-73
2022/06/20 06:23:08;;;;;;;14.38;3.53;;;;;;;16.73;100.00;100995.72;5035740;28;20041;-73
2022/06/20 06:25:43;;;;;;;19.83;3.83;;;;;;;16.81;100.00;100991.56;5041958;28;20041;-74
2022/06/20 06:28:20;;;;;;;17.17;3.38;;;;;;;16.99;100.00;100992.75;5047848;28;20056;-74
2022/06/20 06:31:22;;;;;;;18.73;3.90;;;;;;;17.10;100.00;100984.88;5040683;28;20081;-72
2022/06/20 06:33:59;;;;;;;18.65;3.92;;;;;;;17.26;100.00;100976.53;5022519;28;20110;-73
2022/06/20 06:36:37;;;;;;;16.13;3.55;;;;;;;17.35;100.00;100959.91;5047372;28;20144;-75
2022/06/20 06:39:19;;;;;;;18.70;3.42;;;;;;;17.43;100.00;100966.13;5042099;28;20136;-72
2022/06/20 06:41:48;;;;;;;13.57;2.67;;;;;;;17.49;100.00;100970.00;5043197;28;20053;-72
2022/06/20 06:44:37;;;;;;;18.27;3.50;;;;;;;17.51;100.00;100987.91;5047037;28;20132;-72
2022/06/20 06:47:06;;;;;;;11.65;2.60;;;;;;;17.49;100.00;100981.94;5034582;28;20049;-71
2022/06/20 06:49:43;;;;;;;14.27;3.33;;;;;;;17.53;100.00;100971.47;5042803;28;20049;-70
2022/06/20 06:52:15;;;;;;;15.15;3.53;;;;;;;17.54;100.00;100975.03;5038579;28;20780;-70
2022/06/20 06:54:42;;;;;;;13.30;3.95;;;;;;;17.65;100.00;100981.19;5044018;28;20060;-74
2022/06/20 06:57:24;;;;;;;16.33;3.00;;;;;;;17.67;100.00;100981.50;5046395;28;20662;-75
2022/06/20 06:59:57;;;;;;;12.70;2.75;;;;;;;17.65;98.93;100992.38;5041315;28;20083;-75
2022/06/20 07:02:28;;;;;;;8.43;2.22;;;;;;;17.65;97.16;101001.53;5043746;28;20152;-75
2022/06/20 07:05:05;;;;;;;9.10;2.55;;;;;;;17.71;95.84;101005.38;5060846;28;20556;-74
2022/06/20 07:07:41;;;;;;;13.02;2.75;;;;;;;17.78;95.74;101007.19;5043845;28;20486;-70
2022/06/20 07:10:18;;;;;;;10.63;2.70;;;;;;;17.83;96.70;100992.69;5041700;28;20426;-70
2022/06/20 07:12:49;;;;;;;13.63;3.40;;;;;;;17.94;95.29;100991.19;5041996;28;20137;-71
2022/06/20 07:15:19;;;;;;;14.38;3.17;;;;;;;18.03;96.15;101010.16;5039641;28;20052;-70
2022/06/20 07:18:04;;;;;;;12.05;2.90;;;;;;;18.07;95.34;101010.03;5035316;28;20556;-72
2022/06/20 07:20:39;;;;;;;15.70;3.17;;;;;;;18.08;94.90;101006.03;5042445;28;20144;-71
2022/06/20 07:23:11;;;;;;;19.95;2.95;;;;;;;18.17;93.16;101017.38;5045726;28;20098;-71
2022/06/20 07:25:46;;;;;;;11.75;2.28;;;;;;;18.23;91.07;101027.59;5037921;28;20558;-71
2022/06/20 07:28:18;;;;;;;10.52;2.50;;;;;;;18.22;87.97;101016.84;5039697;28;20498;-72
2022/06/20 07:30:52;;;;;;;10.38;2.03;;;;;;;18.26;86.72;101018.28;5038911;28;20045;-71
2022/06/20 07:33:37;;;;;;;12.35;1.88;;;;;;;18.31;87.89;101014.97;5039472;28;20139;-71
2022/06/20 07:36:08;;;;;;;11.82;2.35;;;;;;;18.34;87.07;101019.69;5068532;28;20140;-71
2022/06/20 07:38:43;;;;;;;11.65;3.03;;;;;;;18.33;86.41;101020.91;5043347;28;20159;-72
2022/06/20 07:41:13;;;;;;;;;;;;;;;18.33;86.46;101022.91;5044949;28;20048;-72
2022/06/20 07:43:48;;;;;;;7.85;2.13;;;;;;;18.38;87.10;101020.41;5045135;28;19963;-73
2022/06/20 07:46:23;;;;;;;11.40;2.75;;;;;;;18.50;85.90;101025.25;5038059;28;20523;-71
2022/06/20 07:48:52;;;;;;;;;;;;;;;18.76;86.03;101029.69;5039329;28;20135;-67
2022/06/20 07:51:29;;;;;;;11.88;3.08;;;;;;;18.99;84.54;101040.59;5038165;28;19924;-70
2022/06/20 07:54:03;;;;;;;11.75;2.90;;;;;;;19.09;82.62;101038.69;5040129;28;21033;-71
2022/06/20 07:56:50;;;;;;;14.38;3.15;;;;;;;18.96;81.04;101049.91;5041134;28;20044;-71
2022/06/20 07:59:43;;;;;;;10.88;3.20;;;;;;;18.94;81.63;101031.97;5048616;28;20063;-71
2022/06/20 08:02:25;;;;;;;16.50;3.78;;;;;;;18.99;80.70;101042.63;5036438;28;20133;-71
2022/06/20 08:04:56;;;;;;;13.35;3.30;;;;;;;19.14;80.36;101050.13;5038875;28;20084;-71
2022/06/20 08:07:28;;;;;;;11.05;2.75;;;;;;;19.22;79.83;101050.72;5046120;28;20044;-70
2022/06/20 08:10:16;;;;;;;11.63;3.35;;;;;;;19.12;77.65;101049.81;5041990;28;20064;-70
2022/06/20 08:13:02;;;;;;;12.75;2.78;;;;;;;19.14;77.98;101050.13;5039254;28;20053;-73
2022/06/20 08:15:33;;;;;;;12.98;2.88;;;;;;;19.14;75.85;101041.72;5037170;28;20067;-72
2022/06/20 08:18:00;;;;;;;10.43;2.55;;;;;;;19.21;75.10;101038.72;5044507;28;20125;-72
2022/06/20 08:20:32;;;;;;;7.72;1.60;;;;;;;19.15;69.43;101048.94;5044928;28;20103;-73
2022/06/20 08:23:18;;;;;;;11.25;2.40;;;;;;;19.15;67.33;101051.75;5043894;28;20077;-72
2022/06/20 08:25:50;;;;;;;15.30;2.22;;;;;;;19.23;67.94;101046.66;5049537;28;20153;-71
2022/06/20 08:28:25;;;;;;;8.43;2.28;;;;;;;19.24;64.36;101051.06;5039397;28;20072;-73
2022/06/20 08:30:55;;;;;;;11.20;2.47;;;;;;;19.40;66.65;101050.97;5048173;28;20273;-72
2022/06/20 08:33:31;;;;;;;7.07;2.20;;;;;;;19.56;67.87;101046.03;5040845;28;20080;-71
2022/06/20 08:36:03;;;;;;;7.78;2.28;;;;;;;19.57;65.16;101044.00;5048295;28;20729;-71
2022/06/20 08:38:40;;;;;;;7.15;2.10;;;;;;;19.58;66.18;101051.97;5040025;28;20407;-71
2022/06/20 08:41:26;;;;;;;8.82;2.15;;;;;;;19.55;64.65;101054.91;5040635;28;20052;-72
2022/06/20 08:44:35;;;;;;;8.10;2.00;;;;;;;19.69;64.58;101058.03;5039463;28;20053;-72
2022/06/20 08:47:33;;;;;;;6.20;2.03;;;;;;;19.72;63.44;101062.75;5037163;28;20595;-74
2022/06/20 08:50:25;;;;;;;4.93;1.67;;;;;;;19.95;62.85;101061.59;5051412;28;20103;-72
2022/06/20 08:53:28;;;;;;;6.30;2.05;;;;;;;20.04;63.41;101068.06;5054731;28;20045;-72
2022/06/20 08:56:19;;;;;;;5.75;1.77;;;;;;;19.99;59.29;101076.28;5044544;28;20146;-72
2022/06/20 08:58:55;;;;;;;8.52;2.60;;;;;;;20.11;60.33;101079.09;5044473;28;20048;-73
2022/06/20 09:01:57;;;;;;;6.38;1.85;;;;;;;20.15;60.09;101076.94;5044131;28;20057;-73
2022/06/20 09:04:33;;;;;;;8.30;1.98;;;;;;;20.09;60.00;101087.13;5035721;28;20073;-73
2022/06/20 09:07:17;;;;;;;5.78;2.25;;;;;;;20.13;60.99;101087.84;5045258;28;20049;-74
2022/06/20 09:09:47;;;;;;;10.47;2.17;;;;;;;20.11;62.39;101083.91;5048939;28;20048;-77
2022/06/20 09:12:31;;;;;;;10.85;2.65;;;;;;;20.08;61.74;101084.81;5045591;28;20461;-73
2022/06/20 09:15:23;;;;;;;10.55;2.28;;;;;;;19.95;61.82;101082.00;5041317;28;20045;-72
2022/06/20 09:18:04;;;;;;;12.07;2.30;;;;;;;19.97;60.94;101089.97;5042599;28;20177;-73
2022/06/20 09:20:57;;;;;;;3.88;1.70;;;;;;;20.24;58.31;101091.06;5049636;28;20132;-73
2022/06/20 09:23:38;;;;;;;9.20;1.92;;;;;;;20.42;57.50;101098.91;5043560;28;20135;-72
2022/06/20 09:26:13;;;;;;;6.03;1.63;;;;;;;20.54;55.97;101097.25;5048892;28;20049;-73
2022/06/20 09:29:06;;;;;;;7.60;1.65;;;;;;;20.71;52.17;101096.63;5047705;28;20492;-74
2022/06/20 09:31:50;;;;;;;3.67;1.63;;;;;;;20.91;50.54;101097.06;5047346;28;20079;-72
2022/06/20 09:34:33;;;;;;;5.55;1.63;;;;;;;21.08;52.79;101100.47;5046394;28;20063;-74
2022/06/20 09:37:38;;;;;;;4.75;1.90;;;;;;;20.88;50.24;101102.81;5040313;28;20494;-74
2022/06/20 09:40:23;;;;;;;6.07;1.85;;;;;;;20.54;54.11;101103.66;4999504;28;20136;-73
2022/06/20 09:42:59;;;;;;;8.55;2.85;;;;;;;20.43;55.47;101095.59;4999510;28;20068;-73
2022/06/20 09:45:52;;;;;;;4.82;2.03;;;;;;;20.26;53.76;101102.63;5003108;28;20077;-74
2022/06/20 09:49:06;;;;;;;12.48;2.30;;;;;;;20.57;53.43;101111.19;4987123;28;20049;-73
2022/06/20 09:52:08;;;;;;;9.00;2.58;;;;;;;20.74;53.35;101115.38;4951201;28;20137;-71
2022/06/20 09:54:53;;;;;;;9.63;2.10;;;;;;;20.87;51.55;101115.31;4969599;28;20084;-71
2022/06/20 09:57:30;;;;;;;4.43;2.40;;;;;;;20.98;52.04;101110.09;5002355;28;20054;-71
2022/06/20 10:00:25;;;;;;;8.52;1.90;;;;;;;20.98;52.58;101116.53;4999445;28;20057;-78
2022/06/20 10:03:04;;;;;;;9.52;2.00;;;;;;;21.00;52.04;101107.63;4982471;28;20133;-77
2022/06/20 10:05:42;;;;;;;6.57;2.13;;;;;;;21.23;51.47;101112.78;4995198;28;20050;-74
2022/06/20 10:08:28;;;;;;;8.02;2.15;;;;;;;21.59;48.93;101107.31;4997296;28;20046;-73
2022/06/20 10:10:54;;;;;;;5.97;1.98;;;;;;;21.88;48.74;101116.22;5018120;28;20080;-75
2022/06/20 10:13:48;;;;;;;9.18;2.10;;;;;;;22.12;47.55;101114.38;5050812;28;20127;-72
2022/06/20 10:16:42;;;;;;;5.57;1.85;;;;;;;22.20;46.88;101116.44;5015095;28;20048;-73
2022/06/20 10:19:21;;;;;;;6.97;2.28;;;;;;;22.30;46.02;101109.56;5046874;28;20045;-70
2022/06/20 10:22:00;;;;;;;4.82;2.20;;;;;;;22.31;46.49;101119.56;5045963;28;20386;-72
2022/06/20 10:24:45;;;;;;;7.18;2.17;;;;;;;22.24;44.95;101125.53;5036433;28;20123;-71
2022/06/20 10:27:20;;;;;;;7.78;2.08;;;;;;;21.95;45.22;101119.53;5071194;28;20529;-74
2022/06/20 10:30:14;;;;;;;7.05;1.73;;;;;;;22.04;45.52;101115.94;5043787;28;20052;-73
2022/06/20 10:33:15;;;;;;;7.07;1.85;;;;;;;22.04;42.74;101118.75;5055248;28;20067;-73
2022/06/20 10:35:51;;;;;;;6.63;1.90;;;;;;;22.35;43.81;101117.38;5044914;28;20410;-72
2022/06/20 10:38:33;;;;;;;6.95;3.13;;;;;;;22.71;43.17;101113.81;5041652;28;20136;-72
2022/06/20 10:41:06;;;;;;;7.68;2.03;;;;;;;22.93;41.95;101124.94;5056340;28;20041;-72
2022/06/20 10:43:42;;;;;;;7.80;2.17;;;;;;;23.00;40.43;101125.41;5044338;28;20129;-72
2022/06/20 10:46:19;;;;;;;3.10;1.63;;;;;;;22.97;42.29;101137.63;5033432;28;20057;-72
2022/06/20 10:48:51;;;;;;;10.00;2.80;;;;;;;23.04;41.98;101140.13;5043859;28;20510;-72
2022/06/20 10:51:27;;;;;;;6.63;2.00;;;;;;;23.07;41.14;101141.22;5029917;28;20061;-72
2022/06/20 10:54:13;;;;;;;6.60;2.05;;;;;;;23.02;40.92;101130.56;5008552;28;20053;-74
2022/06/20 10:57:04;;;;;;;7.88;2.10;;;;;;;23.23;40.55;101136.06;5012301;28;20071;-73
2022/06/20 10:59:52;;;;;;;5.78;1.88;;;;;;;23.14;40.37;101136.03;5013699;28;21091;-72
2022/06/20 11:02:51;;;;;;;5.75;2.08;;;;;;;23.19;41.68;101135.41;5015887;28;20067;-72
2022/06/20 11:05:38;;;;;;;10.65;1.95;;;;;;;23.55;40.40;101131.72;5015178;28;20076;-73
2022/06/20 11:08:12;;;;;;;5.55;1.98;;;;;;;23.71;39.91;101126.47;5009841;28;20328;-74
2022/06/20 11:10:59;;;;;;;7.85;2.05;;;;;;;23.90;39.05;101136.44;5016689;28;20781;-76
2022/06/20 11:13:32;;;;;;;9.88;2.25;;;;;;;24.17;39.40;101139.09;5016642;28;20061;-76
2022/06/20 11:16:37;;;;;;;6.50;1.88;;;;;;;24.30;38.83;101141.72;5019822;28;20052;-75
2022/06/20 11:19:12;;;;;;;8.43;2.55;;;;;;;24.35;38.58;101149.53;5023207;28;20049;-74
2022/06/20 11:22:01;;;;;;;8.27;2.13;;;;;;;24.27;38.64;101145.50;5020737;28;20164;-72
2022/06/20 11:24:42;;;;;;;11.13;2.70;;;;;;;23.96;39.97;101139.41;5020193;28;20663;-71
2022/06/20 11:27:16;;;;;;;9.10;2.05;;;;;;;23.73;40.02;101155.03;5028286;28;20511;-72
2022/06/20 11:30:04;;;;;;;6.80;2.58;;;;;;;24.09;39.39;101148.44;5023320;28;20163;-75
2022/06/20 11:32:55;;;;;;;8.25;2.55;;;;;;;23.95;38.87;101143.47;5025676;28;20045;-74
2022/06/20 11:35:56;;;;;;;7.38;2.10;;;;;;;24.25;38.82;101136.72;5016404;28;20103;-74
2022/06/20 11:38:38;;;;;;;9.50;2.50;;;;;;;24.53;38.23;101121.91;5023302;28;20067;-74
2022/06/20 11:41:14;;;;;;;9.82;2.22;;;;;;;24.68;38.95;101136.91;5029135;28;20048;-74
2022/06/20 11:44:18;;;;;;;8.52;2.45;;;;;;;24.43;38.19;101122.47;5025191;28;20045;-74
2022/06/20 11:46:51;;;;;;;7.00;2.08;;;;;;;24.03;38.02;101131.34;5018639;28;20049;-74
2022/06/20 11:49:42;;;;;;;8.77;2.50;;;;;;;24.42;38.67;101121.69;5022836;28;20052;-73
2022/06/20 11:52:21;;;;;;;6.90;2.45;;;;;;;24.11;39.33;101135.41;5025940;28;20057;-73
2022/06/20 11:55:18;;;;;;;9.50;3.10;;;;;;;23.70;39.97;101136.22;5026955;28;20057;-73
2022/06/20 11:58:07;;;;;;;;;;;;;;;23.94;40.63;101131.41;4997712;28;20203;-72
2022/06/20 12:00:42;;;;;;;11.73;3.00;;;;;;;24.18;40.17;101131.41;5019193;28;20583;-73
2022/06/20 12:03:22;;;;;;;8.75;2.70;;;;;;;24.16;39.81;101125.47;5027179;28;20161;-74
2022/06/20 12:05:58;;;;;;;6.55;2.28;;;;;;;24.45;39.79;101134.84;5019174;28;20238;-72
2022/06/20 12:08:29;;;;;;;7.25;2.40;;;;;;;24.91;39.32;101129.63;5026892;28;20059;-75
2022/06/20 12:10:59;;;;;;;8.18;2.28;;;;;;;24.97;36.80;101127.66;5028275;28;20049;-75
2022/06/20 12:13:31;;;;;;;4.15;1.65;;;;;;;24.49;38.00;101134.66;5028587;28;20053;-75
2022/06/20 12:16:05;;;;;;;7.93;2.97;;;;;;;24.07;38.71;101134.00;5026515;28;20064;-70